Hauptseite
METAR-TAF:

METAR-TAF

Flughäfen :

Flughafen Monastir

Monastir, Tunesien

Breite: 35-46N, Länge: 010-45E, Höhe: 2 m

Beobachtung

Neuester Wetterbericht von vor 45 Minuten, um 04:00 UTC
Windstille
Temperatur 16°C
Luftfeuchtigkeit 100%
Luftdruck 1016 hPa
Sichtweite: 6000 m

METAR: DTMB 260400Z 00000KT 6000 NSC 16/16 Q1016

Zeit: 05:45 (04:45 UTC)

Prognose

Neuester Wetterbericht von vor 5 Stunden und 45 Minuten, um 23:00 UTC
Gültige Prognose vom 26 um 00 UTC bis 26 um 24 UTC
Wind 2 kt aus Nordost
Sichtweite: 6000 m
Wahrscheinlichkeit 40% :
Zeitweise
vom 26 um 03 UTC bis 26 um 06 UTC
Sichtweite: 4000 m
feuchter Dunst
Übergehend zu
vom 26 um 07 UTC bis 26 um 09 UTC
Wind 12 kt aus Nordost
Übergehend zu
vom 26 um 21 UTC bis 26 um 23 UTC
Wind 17 kt aus Nord/Nordwest, Böen bis zu 27 kt

TAF: DTMB 252300Z 2600/2624 04002KT 6000 NSC PROB40 TEMPO 2603/2606 4000 BR BECMG 2607/2609 04012KT BECMG 2621/2623 34017G27KT

Wetterbeobachtungen und Prognosen von mehr als 4000 Flughäfen (METAR und TAF Bericht).

Die verfügbaren Stationen werden durch gelbe und rote Markierungen auf der Karte dargestellt.

Führen Sie die Maus auf sie, um den Namen der Station zu sehen.

Darauf klicken, um die Beobachtung von Wetterbeobachtungen und Prognosen zu sehen.

Um die Karte zu ändern : klicken Sie auf den grünen Tasten mit einem schwarzen Kreuz Zum Vergrößern, auf den grünen Button mit einem Gedankenstrich zu verkleinern, oder auf die grünen Pfeile für benachbarte Karten.


METAR-TAF: